Yellowstone National Park, WY

7:10 PM MST on November 22, 2014 (GMT -0700)
Yellowstone | Change Station
CLOSE
Current Station
Airport
Location: Yellowstone,
Elevation: 7835 ft
Nearby Weather Stations

Elev 7835 ft 44.54 °N, 110.42 °W | Updated 14 minutes ago

Mostly Cloudy
Mostly Cloudy
17 °F
Feels Like 10 °F
N
5
Wind Variable Wind from West
Gusts 29 mph

Today
High -- | Low -- °F
--% Chance of Precip.
Yesterday
High -- | Low -- °F
Precip. -- in
7:28 AM 4:47 PM
New Moon, 0% visible
Pressure 29.75 in
Visibility -9999.0 miles
Clouds
Windchill 10 °F
Dew Point 11 °F
Humidity 77%
Rainfall 0.22 in
Snow Depth Not available.
UV Not available.
Pollen .10 out of 12
Air Quality Not available.
Flu Activity Not available.
METAR KP60 230156Z AUTO 28004KT M08/M12 A2968 RMK AO1 SLP075 T10831117

More Conditions Fewer Conditions

Pressure 29.75 in
Visibility -9999.0 miles
Clouds
Windchill 10 °F
Dew Point 11 °F
Humidity 77%
Rainfall 0.22 in
Snow Depth Not available.
UV Not available.
Pollen .10 out of 12
Air Quality Not available.
Flu Activity Not available.
METAR KP60 230156Z AUTO 28004KT M08/M12 A2968 RMK AO1 SLP075 T10831117

More Conditions Fewer Conditions

10-Day Weather Forecast

Almanac

Astronomy

Nov. 22, 2014 Rise Set
Actual Time
Civil Twilight
Nautical Twilight
Astronomical Twilight
Moon
Length of Visible Light
Length of Day
Tomorrow will be .
, % of the Moon is Illuminated

Today's Extremes

State Highs State Lows

Community

WunderPhotos

Upload Photos

1,772,971 photos uploaded!

WunderBlogs® & News

Nearby

Air Quality

  Air Quality AQ Index Pollutant
Not available.

Snow Depth

Station Depth Elevation

Earthquake Activity

City Distance Mag. Time & Date
Minimum magnitude displayed is 2.5.

Coastal Water Temperatures

Place Temperature

Nearby Weather Stations